createdAt,value
2018-07-15T00:00:51.041Z,101351.11
2018-07-15T00:03:20.135Z,101351.95
2018-07-15T00:05:49.251Z,101352.88
2018-07-15T00:08:18.364Z,101352.02
2018-07-15T00:10:47.543Z,101352.05
2018-07-15T00:13:16.615Z,101352.03
2018-07-15T00:15:45.739Z,101348.03
2018-07-15T00:18:14.827Z,101347.61
2018-07-15T00:20:43.955Z,101344.18
2018-07-15T00:23:13.035Z,101340.28
2018-07-15T00:25:42.129Z,101342.42
2018-07-15T00:28:11.241Z,101339.83
2018-07-15T00:30:40.356Z,101342.27
2018-07-15T00:33:09.440Z,101343.51
2018-07-15T00:35:38.509Z,101340.81
2018-07-15T00:38:07.884Z,101342.99
2018-07-15T00:40:36.960Z,101337.29
2018-07-15T00:43:06.067Z,101343.22
2018-07-15T00:45:35.167Z,101346.17
2018-07-15T00:48:04.381Z,101341.25
2018-07-15T00:50:33.451Z,101336.84
2018-07-15T00:53:02.553Z,101341.99
2018-07-15T00:55:31.636Z,101351.52
2018-07-15T00:58:00.739Z,101348.59
2018-07-15T01:00:35.220Z,101351.72
2018-07-15T01:03:04.359Z,101349.61
2018-07-15T01:05:33.465Z,101346.17
2018-07-15T01:08:02.547Z,101347.02
2018-07-15T01:10:31.660Z,101341.84
2018-07-15T01:13:00.756Z,101347.88
2018-07-15T01:15:29.832Z,101344.46
2018-07-15T01:17:58.940Z,101346.98
2018-07-15T01:20:28.051Z,101342.75
2018-07-15T01:22:57.161Z,101341.05
2018-07-15T01:25:26.236Z,101342.79
2018-07-15T01:27:55.328Z,101346.19
2018-07-15T01:30:24.408Z,101341.02
2018-07-15T01:32:53.501Z,101341.38
2018-07-15T01:35:22.603Z,101342.25
2018-07-15T01:37:51.696Z,101340.94
2018-07-15T01:40:20.772Z,101338.70
2018-07-15T01:42:49.872Z,101332.64
2018-07-15T01:45:18.940Z,101328.70
2018-07-15T01:47:48.045Z,101331.59
2018-07-15T01:50:17.232Z,101328.50
2018-07-15T01:52:46.324Z,101326.34
2018-07-15T01:55:15.424Z,101325.93
2018-07-15T01:57:44.508Z,101328.02
2018-07-15T02:00:13.616Z,101326.34
2018-07-15T02:02:42.738Z,101324.25
2018-07-15T02:05:11.829Z,101326.44
2018-07-15T02:07:40.896Z,101317.86
2018-07-15T02:10:10.032Z,101322.00
2018-07-15T02:12:39.096Z,101319.38
2018-07-15T02:15:08.204Z,101315.51
2018-07-15T02:17:37.264Z,101316.84
2018-07-15T02:20:06.353Z,101321.12
2018-07-15T02:22:35.419Z,101315.55
2018-07-15T02:25:04.540Z,101316.88
2018-07-15T02:27:33.624Z,101325.41
2018-07-15T02:30:02.734Z,101324.97
2018-07-15T02:32:31.804Z,101327.42
2018-07-15T02:35:00.893Z,101327.34
2018-07-15T02:37:29.967Z,101323.38
2018-07-15T02:39:59.075Z,101332.30
2018-07-15T02:42:28.167Z,101330.48
2018-07-15T02:44:57.272Z,101324.95
2018-07-15T02:47:26.344Z,101329.31
2018-07-15T02:49:55.436Z,101321.63
2018-07-15T02:52:24.594Z,101320.40
2018-07-15T02:54:53.631Z,101324.26
2018-07-15T02:57:22.716Z,101323.33
2018-07-15T02:59:51.819Z,101325.82
2018-07-15T03:02:20.920Z,101325.30
2018-07-15T03:04:49.992Z,101319.27
2018-07-15T03:07:19.085Z,101325.42
2018-07-15T03:09:48.157Z,101325.21
2018-07-15T03:12:17.252Z,101316.52
2018-07-15T03:14:46.333Z,101316.64
2018-07-15T03:17:15.516Z,101316.97
2018-07-15T03:19:44.533Z,101321.51
2018-07-15T03:22:13.624Z,101315.34
2018-07-15T03:24:42.716Z,101320.67
2018-07-15T03:27:11.829Z,101318.98
2018-07-15T03:29:40.944Z,101318.45
2018-07-15T03:32:10.065Z,101316.55
2018-07-15T03:34:39.160Z,101319.68
2018-07-15T03:37:08.296Z,101316.36
2018-07-15T03:39:37.392Z,101318.93
2018-07-15T03:42:06.760Z,101310.93
2018-07-15T03:44:35.844Z,101314.05
2018-07-15T03:47:05.099Z,101320.12
2018-07-15T03:49:34.176Z,101321.89
2018-07-15T03:52:03.289Z,101319.84
2018-07-15T03:54:33.267Z,101320.05
2018-07-15T03:57:02.396Z,101320.53
2018-07-15T03:59:31.484Z,101319.18
2018-07-15T04:02:00.723Z,101315.78
2018-07-15T04:04:29.812Z,101311.09
2018-07-15T04:06:58.949Z,101317.93
2018-07-15T04:09:28.060Z,101314.50
2018-07-15T04:11:57.158Z,101315.27
2018-07-15T04:14:26.310Z,101319.53
2018-07-15T04:16:55.435Z,101321.33
2018-07-15T04:19:24.543Z,101310.23
2018-07-15T04:21:53.648Z,101313.11
2018-07-15T04:24:22.757Z,101312.66
2018-07-15T04:26:51.896Z,101309.40
2018-07-15T04:29:21.020Z,101304.30
2018-07-15T04:31:50.171Z,101305.22
2018-07-15T04:34:19.286Z,101306.99
2018-07-15T04:36:48.407Z,101307.41
2018-07-15T04:39:17.652Z,101308.30
2018-07-15T04:41:46.736Z,101303.27
2018-07-15T04:44:15.863Z,101304.61
2018-07-15T04:46:44.949Z,101303.50
2018-07-15T04:49:14.120Z,101304.40
2018-07-15T04:51:43.611Z,101302.92
2018-07-15T04:54:12.732Z,101300.72
2018-07-15T04:56:42.740Z,101300.05
2018-07-15T04:59:11.879Z,101298.13
2018-07-15T05:01:43.680Z,101303.77
2018-07-15T05:04:14.009Z,101298.80
2018-07-15T05:06:43.704Z,101305.83
2018-07-15T05:09:13.392Z,101303.44
2018-07-15T05:11:42.485Z,101306.94
2018-07-15T05:14:11.568Z,101311.81
2018-07-15T05:16:40.684Z,101305.39
2018-07-15T05:19:09.792Z,101305.38
2018-07-15T05:21:38.910Z,101302.38
2018-07-15T05:24:08.033Z,101306.26
2018-07-15T05:26:37.135Z,101303.30
2018-07-15T05:29:06.236Z,101300.74
2018-07-15T05:31:35.344Z,101307.17
2018-07-15T05:34:04.429Z,101302.99
2018-07-15T05:36:33.548Z,101307.73
2018-07-15T05:39:02.660Z,101312.16
2018-07-15T05:41:31.766Z,101306.61
2018-07-15T05:44:00.877Z,101314.44
2018-07-15T05:46:30.025Z,101320.47
2018-07-15T05:48:59.136Z,101317.89
2018-07-15T05:51:28.248Z,101320.56
2018-07-15T05:53:57.364Z,101319.80
2018-07-15T05:56:26.465Z,101322.88
2018-07-15T05:58:55.588Z,101325.10
2018-07-15T06:01:25.022Z,101327.66
2018-07-15T06:03:54.145Z,101337.27
2018-07-15T06:06:23.254Z,101330.47
2018-07-15T06:08:52.328Z,101335.19
2018-07-15T06:11:21.443Z,101335.63
2018-07-15T06:13:50.574Z,101346.81
2018-07-15T06:16:19.683Z,101342.03
2018-07-15T06:18:48.793Z,101339.88
2018-07-15T06:21:17.892Z,101335.02
2018-07-15T06:23:46.992Z,101327.70
2018-07-15T06:26:16.149Z,101336.80
2018-07-15T06:28:45.256Z,101334.97
2018-07-15T06:31:14.356Z,101331.59
2018-07-15T06:33:43.484Z,101334.59
2018-07-15T06:36:12.567Z,101339.82
2018-07-15T06:38:41.681Z,101337.12
2018-07-15T06:41:10.787Z,101340.58
2018-07-15T06:43:39.955Z,101331.55
2018-07-15T06:46:10.008Z,101329.84
2018-07-15T06:48:39.120Z,101327.69
2018-07-15T06:51:08.223Z,101324.63
2018-07-15T06:53:37.329Z,101323.33
2018-07-15T06:56:06.462Z,101318.93
2018-07-15T06:58:36.444Z,101318.77
2018-07-15T07:01:05.520Z,101313.73
2018-07-15T07:03:34.637Z,101318.00
2018-07-15T07:06:03.732Z,101317.91
2018-07-15T07:08:32.849Z,101317.94
2018-07-15T07:11:01.930Z,101326.69
2018-07-15T07:13:31.045Z,101321.95
2018-07-15T07:16:00.121Z,101319.66
2018-07-15T07:18:29.235Z,101318.22
2018-07-15T07:20:58.325Z,101315.67
2018-07-15T07:23:27.433Z,101310.84
2018-07-15T07:25:56.547Z,101309.32
2018-07-15T07:28:25.767Z,101316.48
2018-07-15T07:30:54.860Z,101308.70
2018-07-15T07:33:24.032Z,101307.95
2018-07-15T07:35:53.121Z,101308.20
2018-07-15T07:38:22.248Z,101311.41
2018-07-15T07:40:51.372Z,101314.55
2018-07-15T07:43:20.428Z,101317.16
2018-07-15T07:45:49.516Z,101311.53
2018-07-15T07:48:18.588Z,101311.16
2018-07-15T07:50:47.715Z,101315.05
2018-07-15T07:53:16.795Z,101308.48
2018-07-15T07:55:45.872Z,101318.37
2018-07-15T07:58:14.961Z,101313.34
2018-07-15T08:00:44.075Z,101312.02
2018-07-15T08:03:13.153Z,101311.78
2018-07-15T08:05:42.236Z,101322.84
2018-07-15T08:08:11.312Z,101314.37
2018-07-15T08:10:40.428Z,101320.53
2018-07-15T08:13:09.532Z,101319.23
2018-07-15T08:15:38.617Z,101312.98
2018-07-15T08:18:07.689Z,101311.52
2018-07-15T08:20:36.789Z,101315.05
2018-07-15T08:23:06.596Z,101319.98
2018-07-15T08:25:35.701Z,101316.80
2018-07-15T08:28:04.829Z,101315.31
2018-07-15T08:30:45.386Z,101305.66
2018-07-15T08:33:14.495Z,101315.52
2018-07-15T08:35:43.588Z,101305.84
2018-07-15T08:38:12.657Z,101308.70
2018-07-15T08:40:41.833Z,101303.80
2018-07-15T08:43:10.864Z,101303.44
2018-07-15T08:45:39.984Z,101306.37
2018-07-15T08:48:09.065Z,101305.84
2018-07-15T08:50:38.200Z,101304.05
2018-07-15T08:53:07.276Z,101301.63
2018-07-15T08:55:36.505Z,101294.55
2018-07-15T08:58:06.020Z,101291.77
2018-07-15T09:00:35.112Z,101292.30
2018-07-15T09:03:04.213Z,101294.04
2018-07-15T09:05:33.279Z,101294.70
2018-07-15T09:08:02.393Z,101293.75
2018-07-15T09:10:32.432Z,101302.34
2018-07-15T09:13:01.603Z,101296.77
2018-07-15T09:15:30.839Z,101295.22
2018-07-15T09:18:00.157Z,101296.23
2018-07-15T09:28:55.496Z,101299.36
2018-07-15T09:31:25.169Z,101293.28
2018-07-15T09:33:54.380Z,101299.10
2018-07-15T09:36:23.599Z,101294.37
2018-07-15T09:38:52.951Z,101299.05
2018-07-15T09:41:22.208Z,101287.44
2018-07-15T09:43:51.505Z,101289.75
2018-07-15T09:46:21.381Z,101289.38
2018-07-15T09:48:50.673Z,101289.25
2018-07-15T09:51:19.897Z,101284.62
2018-07-15T09:53:49.087Z,101283.78
2018-07-15T09:56:18.253Z,101278.70
2018-07-15T09:58:47.840Z,101275.48
2018-07-15T10:01:17.109Z,101271.17
2018-07-15T10:03:46.332Z,101272.02
2018-07-15T10:06:15.665Z,101264.23
2018-07-15T10:08:44.884Z,101264.35
2018-07-15T10:11:14.504Z,101260.66
2018-07-15T10:13:43.613Z,101260.59
2018-07-15T10:16:12.773Z,101254.98
2018-07-15T10:18:41.869Z,101254.50
2018-07-15T10:21:10.960Z,101257.45
2018-07-15T10:23:40.078Z,101249.92
2018-07-15T10:26:09.144Z,101248.04
2018-07-15T10:28:38.276Z,101243.21
2018-07-15T10:31:07.410Z,101247.25
2018-07-15T10:33:36.491Z,101248.62
2018-07-15T10:36:05.594Z,101234.11
2018-07-15T10:38:34.672Z,101234.38
2018-07-15T10:41:03.769Z,101230.75
2018-07-15T10:43:32.876Z,101235.55
2018-07-15T10:46:02.019Z,101231.50
2018-07-15T10:48:32.155Z,101236.16
2018-07-15T10:51:01.304Z,101240.47
2018-07-15T10:53:30.577Z,101233.19
2018-07-15T10:55:59.850Z,101227.89
2018-07-15T10:58:29.168Z,101227.78
2018-07-15T11:00:58.388Z,101225.73
2018-07-15T11:03:27.600Z,101220.58
2018-07-15T11:05:56.865Z,101219.11
2018-07-15T11:08:26.316Z,101218.75
2018-07-15T11:10:55.557Z,101218.05
2018-07-15T11:13:24.960Z,101212.55
2018-07-15T11:15:54.085Z,101213.02
2018-07-15T11:18:23.370Z,101210.86
2018-07-15T11:20:52.507Z,101215.50
2018-07-15T11:23:21.796Z,101203.72
2018-07-15T11:25:51.136Z,101206.52
2018-07-15T11:28:20.263Z,101199.94
2018-07-15T11:30:49.482Z,101205.35
2018-07-15T11:33:19.008Z,101206.53
2018-07-15T11:35:48.332Z,101212.84
2018-07-15T11:38:17.805Z,101199.58
2018-07-15T11:40:47.153Z,101210.28
2018-07-15T11:43:16.626Z,101204.58
2018-07-15T11:45:45.729Z,101197.47
2018-07-15T11:48:14.907Z,101199.96
2018-07-15T11:50:43.960Z,101197.22
2018-07-15T11:53:13.055Z,101188.70
2018-07-15T11:55:42.387Z,101190.86
2018-07-15T11:58:11.830Z,101189.14
2018-07-15T12:00:41.182Z,101177.84
2018-07-15T12:03:10.369Z,101178.85
2018-07-15T12:05:39.584Z,101176.64
2018-07-15T12:08:08.665Z,101173.25
2018-07-15T12:10:38.097Z,101169.27
2018-07-15T12:13:07.355Z,101166.73
2018-07-15T12:15:37.388Z,101166.12
2018-07-15T12:18:06.729Z,101164.81
2018-07-15T12:20:36.110Z,101162.23
2018-07-15T12:23:05.492Z,101163.51
2018-07-15T12:25:34.935Z,101154.41
2018-07-15T12:28:04.216Z,101155.66
2018-07-15T12:30:33.446Z,101151.88
2018-07-15T12:33:02.629Z,101155.01
2018-07-15T12:35:31.813Z,101141.34
2018-07-15T12:38:01.697Z,101154.45
2018-07-15T12:40:31.870Z,101148.38
2018-07-15T12:43:01.988Z,101146.56
2018-07-15T12:45:31.173Z,101147.34
2018-07-15T12:48:00.416Z,101148.10
2018-07-15T12:50:29.569Z,101142.13
2018-07-15T12:52:59.037Z,101138.08
2018-07-15T12:55:28.193Z,101138.20
2018-07-15T12:57:57.426Z,101135.88
2018-07-15T13:00:26.665Z,101133.09
2018-07-15T13:02:56.172Z,101128.48
2018-07-15T13:05:25.438Z,101130.75
2018-07-15T13:07:54.638Z,101128.77
2018-07-15T13:10:23.867Z,101120.45
2018-07-15T13:12:53.115Z,101115.83
2018-07-15T13:15:22.378Z,101112.14
2018-07-15T13:17:51.497Z,101112.47
2018-07-15T13:20:20.749Z,101099.67
2018-07-15T13:22:49.995Z,101110.98
2018-07-15T13:25:19.188Z,101093.86
2018-07-15T13:27:48.331Z,101097.17
2018-07-15T13:30:17.711Z,101095.60
2018-07-15T13:32:46.932Z,101101.08
2018-07-15T13:35:16.030Z,101097.52
2018-07-15T13:37:45.172Z,101090.75
2018-07-15T13:40:14.245Z,101086.03
2018-07-15T13:42:43.391Z,101091.25
2018-07-15T13:45:12.461Z,101090.75
2018-07-15T13:47:42.201Z,101085.43
2018-07-15T13:50:11.287Z,101086.93
2018-07-15T13:52:40.392Z,101088.08
2018-07-15T13:55:09.716Z,101087.73
2018-07-15T13:57:38.880Z,101080.57
2018-07-15T14:00:09.061Z,101077.42
2018-07-15T14:02:38.412Z,101077.91
2018-07-15T14:05:08.066Z,101066.08
2018-07-15T14:07:37.216Z,101065.09
2018-07-15T14:10:06.466Z,101067.03
2018-07-15T14:12:35.783Z,101067.36
2018-07-15T14:15:05.313Z,101065.98
2018-07-15T14:17:34.420Z,101059.55
2018-07-15T14:20:03.733Z,101062.57
2018-07-15T14:22:32.898Z,101068.72
2018-07-15T14:25:01.993Z,101053.66
2018-07-15T14:27:31.116Z,101057.86
2018-07-15T14:30:00.319Z,101062.12
2018-07-15T14:32:29.476Z,101058.69
2018-07-15T14:34:58.748Z,101050.73
2018-07-15T14:37:27.837Z,101049.20
2018-07-15T14:39:56.955Z,101057.30
2018-07-15T14:42:26.032Z,101046.37
2018-07-15T14:44:55.145Z,101044.08
2018-07-15T14:47:24.248Z,101046.29
2018-07-15T14:49:54.551Z,101043.98
2018-07-15T14:52:23.668Z,101043.97
2018-07-15T14:54:52.828Z,101039.75
2018-07-15T14:57:21.940Z,101036.45
2018-07-15T14:59:51.125Z,101040.16
2018-07-15T15:02:20.253Z,101033.37
2018-07-15T15:04:49.392Z,101032.33
2018-07-15T15:07:18.484Z,101032.53
2018-07-15T15:09:47.595Z,101030.11
2018-07-15T15:12:16.704Z,101026.45
2018-07-15T15:14:46.060Z,101023.41
2018-07-15T15:17:15.261Z,101021.93
2018-07-15T15:19:44.347Z,101017.16
2018-07-15T15:22:13.639Z,101013.86
2018-07-15T15:24:42.745Z,101021.34
2018-07-15T15:27:11.939Z,101016.57
2018-07-15T15:29:41.021Z,101017.42
2018-07-15T15:32:10.182Z,101013.17
2018-07-15T15:34:39.269Z,101008.20
2018-07-15T15:37:08.480Z,101004.15
2018-07-15T15:39:38.084Z,101006.17
2018-07-15T15:42:07.248Z,100999.76
2018-07-15T15:44:36.303Z,100999.58
2018-07-15T15:47:05.397Z,100998.10
2018-07-15T15:49:34.485Z,100999.80
2018-07-15T15:52:03.719Z,100991.24
2018-07-15T15:54:32.800Z,100988.32
2018-07-15T15:57:01.925Z,100991.23
2018-07-15T15:59:31.125Z,100992.82
2018-07-15T16:02:00.392Z,100985.66
2018-07-15T16:04:30.151Z,100984.30
2018-07-15T16:06:59.492Z,100976.68
2018-07-15T16:09:28.890Z,100981.50
2018-07-15T16:11:58.269Z,100984.95
2018-07-15T16:14:27.484Z,100982.89
2018-07-15T16:16:56.688Z,100974.52
2018-07-15T16:19:25.802Z,100976.59
2018-07-15T16:21:54.896Z,100976.23
2018-07-15T16:24:24.009Z,100969.02
2018-07-15T16:26:53.109Z,100971.81
2018-07-15T16:29:22.217Z,100971.22
2018-07-15T16:31:51.316Z,100966.31
2018-07-15T16:34:20.428Z,100963.44
2018-07-15T16:36:49.720Z,100951.98
2018-07-15T16:39:19.048Z,100955.73
2018-07-15T16:41:48.261Z,100946.84
2018-07-15T16:44:17.547Z,100952.17
2018-07-15T16:46:46.672Z,100944.28
2018-07-15T16:49:15.849Z,100947.61
2018-07-15T16:51:44.949Z,100951.94
2018-07-15T16:54:15.097Z,100956.44
2018-07-15T16:56:44.203Z,100956.30
2018-07-15T16:59:13.341Z,100955.11
2018-07-15T17:01:42.483Z,100953.23
2018-07-15T17:04:11.602Z,100952.09
2018-07-15T17:06:40.829Z,100952.31
2018-07-15T17:09:10.284Z,100948.11
2018-07-15T17:11:39.596Z,100949.08
2018-07-15T17:14:08.953Z,100947.16
2018-07-15T17:16:38.162Z,100945.22
2018-07-15T17:19:08.186Z,100944.45
2018-07-15T17:21:37.298Z,100941.98
2018-07-15T17:24:06.428Z,100945.16
2018-07-15T17:26:35.501Z,100941.64
2018-07-15T17:29:04.615Z,100944.84
2018-07-15T17:31:33.780Z,100942.95
2018-07-15T17:34:02.856Z,100946.53
2018-07-15T17:36:32.098Z,100946.53
2018-07-15T17:39:01.376Z,100946.91
2018-07-15T17:41:30.940Z,100952.50
2018-07-15T17:44:00.006Z,100939.87
2018-07-15T17:46:29.105Z,100949.22
2018-07-15T17:48:58.180Z,100946.48
2018-07-15T17:51:27.304Z,100950.45
2018-07-15T17:53:56.413Z,100958.20
2018-07-15T17:56:25.512Z,100954.58
2018-07-15T17:58:54.695Z,100951.47
2018-07-15T18:01:23.901Z,100954.81
2018-07-15T18:03:52.991Z,100956.69
2018-07-15T18:06:22.240Z,100963.83
2018-07-15T18:08:51.308Z,100964.89
2018-07-15T18:11:20.483Z,100963.80
2018-07-15T18:13:49.639Z,100969.13
2018-07-15T18:16:18.960Z,100966.64
2018-07-15T18:18:48.091Z,100966.72
2018-07-15T18:21:17.231Z,100965.70
2018-07-15T18:23:46.344Z,100968.87
2018-07-15T18:26:15.523Z,100965.78
2018-07-15T18:28:44.643Z,100973.77
2018-07-15T18:31:13.799Z,100968.67
2018-07-15T18:33:42.952Z,100974.05
2018-07-15T18:36:12.154Z,100971.63
2018-07-15T18:38:41.452Z,100969.39
2018-07-15T18:41:10.629Z,100970.44
2018-07-15T18:43:39.837Z,100969.44
2018-07-15T18:46:09.088Z,100970.22
2018-07-15T18:48:38.218Z,100963.78
2018-07-15T18:51:07.336Z,100965.87
2018-07-15T18:53:36.636Z,100968.81
2018-07-15T18:56:06.007Z,100964.30
2018-07-15T18:58:35.305Z,100976.48
2018-07-15T19:01:04.490Z,100976.73
2018-07-15T19:03:33.720Z,100975.23
2018-07-15T19:06:02.980Z,100972.77
2018-07-15T19:08:32.157Z,100977.74
2018-07-15T19:11:01.319Z,100975.45
2018-07-15T19:13:30.518Z,100975.21
2018-07-15T19:15:59.685Z,100971.67
2018-07-15T19:18:28.832Z,100972.12
2018-07-15T19:20:58.933Z,100977.08
2018-07-15T19:23:28.124Z,100969.66
2018-07-15T19:25:57.262Z,100972.45
2018-07-15T19:28:26.468Z,100985.13
2018-07-15T19:30:55.591Z,100984.80
2018-07-15T19:33:25.785Z,100988.74
2018-07-15T19:35:54.932Z,100996.52
2018-07-15T19:38:24.064Z,101006.64
2018-07-15T19:40:53.184Z,101012.29
2018-07-15T19:43:22.348Z,101006.85
2018-07-15T19:45:51.481Z,101000.59
2018-07-15T19:48:20.618Z,101001.23
2018-07-15T19:50:49.696Z,101001.08
2018-07-15T19:53:19.072Z,101000.48
2018-07-15T19:55:48.229Z,101004.17
2018-07-15T19:58:17.460Z,101003.72
2018-07-15T20:00:46.652Z,101012.27
2018-07-15T20:03:15.938Z,101009.47
2018-07-15T20:05:45.108Z,101007.49
2018-07-15T20:08:14.288Z,101004.61
2018-07-15T20:10:44.152Z,101007.05
2018-07-15T20:13:13.365Z,101009.27
2018-07-15T20:15:42.458Z,101014.86
2018-07-15T20:18:11.532Z,101010.52
2018-07-15T20:20:40.649Z,101004.34
2018-07-15T20:23:09.745Z,101010.69
2018-07-15T20:25:38.929Z,101008.61
2018-07-15T20:28:08.225Z,101004.80
2018-07-15T20:30:37.571Z,100999.09
2018-07-15T20:33:06.992Z,101001.25
2018-07-15T20:35:36.283Z,101002.63
2018-07-15T20:38:05.515Z,101000.05
2018-07-15T20:40:34.641Z,101002.09
2018-07-15T20:43:03.847Z,101005.16
2018-07-15T20:45:33.299Z,101008.27
2018-07-15T20:48:02.457Z,101008.66
2018-07-15T20:50:31.803Z,101006.52
2018-07-15T20:53:00.842Z,101007.36
2018-07-15T20:55:30.010Z,101000.05
2018-07-15T20:57:59.257Z,101005.33
2018-07-15T21:00:28.428Z,101010.18
2018-07-15T21:02:57.867Z,100996.49
2018-07-15T21:05:27.029Z,101007.28
2018-07-15T21:07:56.135Z,101014.23
2018-07-15T21:10:25.220Z,101013.44
2018-07-15T21:12:54.353Z,101018.18
2018-07-15T21:15:23.463Z,101013.05
2018-07-15T21:17:52.576Z,101010.54
2018-07-15T21:20:21.727Z,101012.86
2018-07-15T21:22:50.820Z,101014.92
2018-07-15T21:25:20.068Z,101020.13
2018-07-15T21:27:49.259Z,101020.21
2018-07-15T21:30:18.348Z,101022.83
2018-07-15T21:32:47.479Z,101019.48
2018-07-15T21:35:16.573Z,101023.88
2018-07-15T21:37:45.666Z,101026.20
2018-07-15T21:40:14.736Z,101036.19
2018-07-15T21:42:43.849Z,101032.02
2018-07-15T21:45:12.912Z,101039.12
2018-07-15T21:47:42.004Z,101034.89
2018-07-15T21:50:11.117Z,101030.73
2018-07-15T21:52:40.217Z,101036.89
2018-07-15T21:55:09.284Z,101033.60
2018-07-15T21:57:38.427Z,101042.47
2018-07-15T22:00:08.217Z,101038.69
2018-07-15T22:02:37.357Z,101036.18
2018-07-15T22:05:06.449Z,101040.65
2018-07-15T22:07:46.956Z,101039.43
2018-07-15T22:10:22.552Z,101044.38
2018-07-15T22:12:51.671Z,101042.34
2018-07-15T22:15:20.749Z,101044.09
2018-07-15T22:17:49.845Z,101041.98
2018-07-15T22:20:18.916Z,101038.59
2018-07-15T22:22:48.005Z,101044.20
2018-07-15T22:25:17.102Z,101039.88
2018-07-15T22:27:46.216Z,101036.44
2018-07-15T22:30:15.305Z,101044.21
2018-07-15T22:32:44.439Z,101045.56
2018-07-15T22:35:13.538Z,101047.30
2018-07-15T22:37:42.720Z,101049.12
2018-07-15T22:40:11.835Z,101042.73
2018-07-15T22:42:40.918Z,101044.52
2018-07-15T22:45:10.021Z,101042.80
2018-07-15T22:47:39.093Z,101042.47
2018-07-15T22:50:08.353Z,101033.09
2018-07-15T22:52:37.428Z,101037.92
2018-07-15T22:55:06.607Z,101040.14
2018-07-15T22:57:35.708Z,101030.92
2018-07-15T23:00:05.486Z,101040.41
2018-07-15T23:02:34.564Z,101041.22
2018-07-15T23:05:46.648Z,101026.61
2018-07-15T23:08:15.717Z,101040.36
2018-07-15T23:10:44.820Z,101034.72
2018-07-15T23:13:14.326Z,101038.55
2018-07-15T23:15:43.754Z,101032.55
2018-07-15T23:18:12.837Z,101033.42
2018-07-15T23:20:42.649Z,101033.81
2018-07-15T23:23:12.132Z,101024.38
2018-07-15T23:25:41.224Z,101032.13
2018-07-15T23:28:11.246Z,101032.17
2018-07-15T23:30:41.059Z,101027.95
2018-07-15T23:33:10.536Z,101036.52
2018-07-15T23:35:39.689Z,101035.74
2018-07-15T23:38:08.716Z,101028.96
2018-07-15T23:40:37.855Z,101037.58
2018-07-15T23:43:06.921Z,101035.02
2018-07-15T23:45:36.668Z,101036.28
2018-07-15T23:48:05.843Z,101029.83
2018-07-15T23:50:34.932Z,101015.22
2018-07-15T23:53:04.005Z,101021.61
2018-07-15T23:55:33.111Z,101029.83
2018-07-15T23:58:02.241Z,101028.53
